Time;durP1;ratioP1;P1;durP2;ratioP2;P2;SDS_P1;SDS_P2;PMS_P1;PMS_P2;Temp;Humidity;BMP_temperature;BMP_pressure;BME280_temperature;BME280_humidity;BME280_pressure;Samples;Min_cycle;Max_cycle;Signal;HPM_P1;HPM_P2
2021/09/25 00:01:03;;;;;;;10.20;6.32;;;;;;;;;;4985919;28;20117;-59
2021/09/25 00:03:29;;;;;;;14.50;8.10;;;;;;;;;;4985616;28;20031;-59
2021/09/25 00:05:54;;;;;;;11.05;6.95;;;;;;;;;;4985418;28;20049;-59
2021/09/25 00:08:20;;;;;;;10.30;6.38;;;;;;;;;;4998899;28;20021;-58
2021/09/25 00:10:45;;;;;;;11.73;6.70;;;;;;;;;;5011991;28;20087;-59
2021/09/25 00:13:11;;;;;;;10.25;6.38;;;;;;;;;;4992236;28;20500;-59
2021/09/25 00:15:37;;;;;;;10.35;6.30;;;;;;;;;;4994406;28;20027;-60
2021/09/25 00:18:04;;;;;;;13.70;6.57;;;;;;;;;;5049865;28;20503;-59
2021/09/25 00:20:29;;;;;;;16.20;6.75;;;;;;;;;;5040317;28;20050;-60
2021/09/25 00:22:55;;;;;;;10.65;6.68;;;;;;;;;;5017371;28;20103;-59
2021/09/25 00:25:21;;;;;;;13.75;6.65;;;;;;;;;;4977565;28;20027;-59
2021/09/25 00:27:46;;;;;;;15.35;6.90;;;;;;;;;;4982357;28;20035;-60
2021/09/25 00:30:13;;;;;;;13.98;7.05;;;;;;;;;;4987892;28;20027;-61
2021/09/25 00:32:39;;;;;;;11.45;6.93;;;;;;;;;;4993662;28;20170;-59
2021/09/25 00:35:06;;;;;;;11.75;6.95;;;;;;;;;;4981584;28;20030;-59
2021/09/25 00:37:32;;;;;;;14.40;6.28;;;;;;;;;;4993091;28;20020;-59
2021/09/25 00:39:58;;;;;;;10.43;5.97;;;;;;;;;;4980829;28;20033;-59
2021/09/25 00:42:23;;;;;;;13.32;6.80;;;;;;;;;;5053461;28;20038;-60
2021/09/25 00:44:49;;;;;;;9.43;6.28;;;;;;;;;;5006545;28;20024;-59
2021/09/25 00:47:14;;;;;;;11.05;6.38;;;;;;;;;;4997449;28;20108;-59
2021/09/25 00:49:40;;;;;;;10.73;6.10;;;;;;;;;;4995863;28;20463;-62
2021/09/25 00:52:07;;;;;;;10.32;5.93;;;;;;;;;;4988263;28;20559;-60
2021/09/25 00:54:32;;;;;;;9.90;6.22;;;;;;;;;;4980087;28;20083;-60
2021/09/25 00:56:59;;;;;;;12.88;6.07;;;;;;;;;;5000787;28;20030;-61
2021/09/25 00:59:24;;;;;;;9.05;5.40;;;;;;;;;;4996824;28;20546;-61
2021/09/25 01:01:50;;;;;;;11.55;5.82;;;;;;;;;;4991127;28;20030;-59
2021/09/25 01:04:16;;;;;;;10.55;6.10;;;;;;;;;;4999500;28;20077;-59
2021/09/25 01:06:42;;;;;;;9.52;5.70;;;;;;;;;;4982047;28;20038;-59
2021/09/25 01:09:07;;;;;;;10.10;5.75;;;;;;;;;;4993165;28;20073;-59
2021/09/25 01:11:33;;;;;;;9.35;6.00;;;;;;;;;;5004206;28;20512;-58
2021/09/25 01:13:59;;;;;;;9.85;6.07;;;;;;;;;;5001950;28;20544;-59
2021/09/25 01:16:25;;;;;;;11.00;6.25;;;;;;;;;;5066243;28;20033;-60
2021/09/25 01:18:51;;;;;;;10.80;5.88;;;;;;;;;;5009891;28;20034;-60
2021/09/25 01:21:17;;;;;;;9.60;5.88;;;;;;;;;;4988596;28;20034;-60
2021/09/25 01:23:44;;;;;;;9.02;5.40;;;;;;;;;;4984061;28;20271;-59
2021/09/25 01:26:10;;;;;;;10.88;5.97;;;;;;;;;;5046205;28;20476;-59
2021/09/25 01:28:37;;;;;;;11.52;6.10;;;;;;;;;;4988843;28;20511;-60
2021/09/25 01:31:04;;;;;;;13.40;5.93;;;;;;;;;;4996437;28;20022;-59
2021/09/25 01:33:33;;;;;;;9.05;5.40;;;;;;;;;;4999365;28;20049;-60
2021/09/25 01:35:58;;;;;;;10.27;6.25;;;;;;;;;;5013776;28;20024;-59
2021/09/25 01:38:24;;;;;;;9.57;5.80;;;;;;;;;;5010376;28;20034;-59
2021/09/25 01:40:50;;;;;;;9.63;5.82;;;;;;;;;;5008182;28;20058;-59
2021/09/25 01:43:16;;;;;;;9.60;5.63;;;;;;;;;;4985631;28;20526;-59
2021/09/25 01:45:43;;;;;;;9.82;6.05;;;;;;;;;;4983768;28;20296;-60
2021/09/25 01:48:09;;;;;;;10.57;5.95;;;;;;;;;;4992576;28;20031;-59
2021/09/25 01:50:35;;;;;;;11.32;5.65;;;;;;;;;;5012327;28;20022;-59
2021/09/25 01:53:01;;;;;;;9.05;5.80;;;;;;;;;;5061406;28;20030;-59
2021/09/25 01:55:26;;;;;;;9.82;5.53;;;;;;;;;;4996388;28;20117;-59
2021/09/25 01:57:52;;;;;;;12.90;6.28;;;;;;;;;;4998049;28;20122;-60
2021/09/25 02:00:19;;;;;;;11.30;6.25;;;;;;;;;;4996692;28;20049;-59
2021/09/25 02:02:45;;;;;;;9.77;5.88;;;;;;;;;;4983033;28;20035;-60
2021/09/25 02:05:11;;;;;;;10.25;5.75;;;;;;;;;;4991568;28;20503;-59
2021/09/25 02:07:37;;;;;;;10.48;5.85;;;;;;;;;;4990819;28;20026;-59
2021/09/25 02:10:03;;;;;;;12.30;6.03;;;;;;;;;;4988358;28;20504;-60
2021/09/25 02:12:29;;;;;;;10.18;5.80;;;;;;;;;;4995227;28;20126;-59
2021/09/25 02:14:54;;;;;;;11.18;5.53;;;;;;;;;;4977950;28;20228;-59
2021/09/25 02:17:21;;;;;;;10.60;5.70;;;;;;;;;;5000618;28;20050;-60
2021/09/25 02:19:47;;;;;;;9.80;6.07;;;;;;;;;;5048743;28;20054;-59
2021/09/25 02:22:13;;;;;;;11.05;6.13;;;;;;;;;;5051698;28;20033;-60
2021/09/25 02:24:39;;;;;;;10.05;5.78;;;;;;;;;;4988310;28;20034;-62
2021/09/25 02:27:05;;;;;;;13.02;6.93;;;;;;;;;;4994271;28;20030;-60
2021/09/25 02:29:30;;;;;;;11.20;5.97;;;;;;;;;;4994677;28;20053;-60
2021/09/25 02:31:57;;;;;;;8.95;5.68;;;;;;;;;;5000115;28;20034;-60
2021/09/25 02:34:22;;;;;;;10.60;5.80;;;;;;;;;;4992050;28;20093;-61
2021/09/25 02:36:47;;;;;;;10.73;5.97;;;;;;;;;;4990417;28;20022;-60
2021/09/25 02:39:13;;;;;;;10.15;5.88;;;;;;;;;;5056672;28;20186;-61
2021/09/25 02:41:38;;;;;;;12.52;6.15;;;;;;;;;;5000842;28;20160;-60
2021/09/25 02:44:04;;;;;;;12.15;6.57;;;;;;;;;;5055279;28;20037;-60
2021/09/25 02:46:29;;;;;;;9.02;5.65;;;;;;;;;;5002915;28;20488;-60
2021/09/25 02:48:55;;;;;;;9.07;5.40;;;;;;;;;;4992284;28;20031;-60
2021/09/25 02:51:20;;;;;;;10.95;5.78;;;;;;;;;;5002790;28;20026;-59
2021/09/25 02:53:45;;;;;;;11.98;6.07;;;;;;;;;;4986747;28;20598;-60
2021/09/25 02:56:11;;;;;;;11.35;6.13;;;;;;;;;;4992761;28;20118;-60
2021/09/25 02:58:36;;;;;;;9.90;5.63;;;;;;;;;;5007782;28;20051;-60
2021/09/25 03:01:02;;;;;;;12.02;5.68;;;;;;;;;;4994849;28;20022;-60
2021/09/25 03:03:27;;;;;;;10.05;6.03;;;;;;;;;;4991282;28;20037;-59
2021/09/25 03:05:53;;;;;;;9.23;5.85;;;;;;;;;;4995421;28;20103;-60
2021/09/25 03:08:18;;;;;;;11.35;5.43;;;;;;;;;;4993578;28;20037;-60
2021/09/25 03:10:44;;;;;;;11.30;5.70;;;;;;;;;;4985610;28;20117;-59
2021/09/25 03:13:09;;;;;;;9.82;5.43;;;;;;;;;;4985074;28;20506;-59
2021/09/25 03:15:35;;;;;;;12.68;5.93;;;;;;;;;;4992709;28;20489;-59
2021/09/25 03:18:00;;;;;;;11.05;6.47;;;;;;;;;;4990629;28;20038;-59
2021/09/25 03:20:27;;;;;;;9.20;5.80;;;;;;;;;;4996269;28;20033;-60
2021/09/25 03:22:52;;;;;;;11.20;5.95;;;;;;;;;;4986408;28;20088;-58
2021/09/25 03:25:18;;;;;;;9.43;5.80;;;;;;;;;;5033127;28;20030;-59
2021/09/25 03:27:43;;;;;;;9.93;5.95;;;;;;;;;;4990065;28;20042;-59
2021/09/25 03:30:10;;;;;;;12.00;5.97;;;;;;;;;;4992395;28;20107;-59
2021/09/25 03:32:36;;;;;;;11.18;6.10;;;;;;;;;;4994254;28;20047;-60
2021/09/25 03:35:02;;;;;;;11.25;5.90;;;;;;;;;;4977673;28;20027;-61
2021/09/25 03:37:28;;;;;;;9.93;5.63;;;;;;;;;;5010395;28;20058;-58
2021/09/25 03:39:53;;;;;;;10.25;6.15;;;;;;;;;;4982427;28;20512;-59
2021/09/25 03:42:18;;;;;;;9.38;5.15;;;;;;;;;;4987964;28;20026;-58
2021/09/25 03:44:44;;;;;;;9.27;5.47;;;;;;;;;;4992937;28;20091;-58
2021/09/25 03:47:09;;;;;;;11.75;5.85;;;;;;;;;;4987448;28;20037;-58
2021/09/25 03:49:35;;;;;;;8.70;5.40;;;;;;;;;;5036779;28;20058;-58
2021/09/25 03:52:01;;;;;;;10.10;6.18;;;;;;;;;;4994404;28;20048;-58
2021/09/25 03:54:26;;;;;;;10.48;5.65;;;;;;;;;;5016441;28;20026;-59
2021/09/25 03:56:51;;;;;;;11.95;5.82;;;;;;;;;;5044875;28;20083;-59
2021/09/25 03:59:17;;;;;;;11.32;4.95;;;;;;;;;;5053685;28;20023;-58
2021/09/25 04:01:42;;;;;;;11.95;5.75;;;;;;;;;;5006398;28;20642;-59
2021/09/25 04:04:08;;;;;;;9.73;5.78;;;;;;;;;;4996981;28;20396;-59
2021/09/25 04:06:33;;;;;;;12.85;5.78;;;;;;;;;;5074318;28;20122;-58
2021/09/25 04:08:59;;;;;;;10.20;6.05;;;;;;;;;;4996588;28;20057;-62
2021/09/25 04:11:25;;;;;;;9.13;5.43;;;;;;;;;;4995114;28;20031;-61
2021/09/25 04:13:50;;;;;;;10.20;5.28;;;;;;;;;;5051345;28;20030;-59
2021/09/25 04:16:16;;;;;;;11.13;5.68;;;;;;;;;;5013206;28;20230;-60
2021/09/25 04:18:41;;;;;;;9.52;5.78;;;;;;;;;;4994035;28;20035;-58
2021/09/25 04:21:07;;;;;;;9.27;5.55;;;;;;;;;;4999468;28;20516;-57
2021/09/25 04:23:32;;;;;;;10.60;5.35;;;;;;;;;;4996598;28;20074;-59
2021/09/25 04:25:57;;;;;;;10.77;6.00;;;;;;;;;;4997867;28;20038;-58
2021/09/25 04:28:23;;;;;;;10.52;5.35;;;;;;;;;;4977993;28;20026;-59
2021/09/25 04:30:50;;;;;;;10.27;5.72;;;;;;;;;;5047156;28;20038;-60
2021/09/25 04:33:15;;;;;;;10.07;5.45;;;;;;;;;;4989180;28;20026;-59
2021/09/25 04:35:41;;;;;;;10.38;5.60;;;;;;;;;;4996313;28;20031;-58
2021/09/25 04:38:06;;;;;;;11.35;5.43;;;;;;;;;;4991448;28;20067;-58
2021/09/25 04:40:32;;;;;;;13.60;5.85;;;;;;;;;;4989411;28;20049;-57
2021/09/25 04:42:59;;;;;;;11.48;5.68;;;;;;;;;;4998132;28;20038;-58
2021/09/25 04:45:25;;;;;;;10.50;5.60;;;;;;;;;;4988220;28;20120;-58
2021/09/25 04:47:50;;;;;;;8.68;5.40;;;;;;;;;;4991131;28;20497;-59
2021/09/25 04:50:17;;;;;;;10.38;6.13;;;;;;;;;;4993895;28;20030;-59
2021/09/25 04:52:43;;;;;;;9.73;5.07;;;;;;;;;;4984893;28;20030;-58
2021/09/25 04:55:08;;;;;;;13.18;5.78;;;;;;;;;;4984622;28;20551;-58
2021/09/25 04:57:34;;;;;;;11.90;5.80;;;;;;;;;;4994660;28;20024;-59
2021/09/25 05:00:00;;;;;;;11.02;5.78;;;;;;;;;;4996715;28;20561;-59
2021/09/25 05:02:25;;;;;;;8.95;5.40;;;;;;;;;;4989849;28;20029;-58
2021/09/25 05:04:50;;;;;;;11.05;5.53;;;;;;;;;;4991565;28;20033;-59
2021/09/25 05:07:16;;;;;;;11.63;6.10;;;;;;;;;;4986141;28;20030;-59
2021/09/25 05:09:41;;;;;;;10.38;5.75;;;;;;;;;;4990370;28;20376;-59
2021/09/25 05:12:07;;;;;;;10.90;5.72;;;;;;;;;;4992318;28;20046;-58
2021/09/25 05:14:35;;;;;;;11.75;5.95;;;;;;;;;;5004394;28;20507;-59
2021/09/25 05:17:02;;;;;;;12.98;6.45;;;;;;;;;;4995703;28;20057;-58
2021/09/25 05:19:27;;;;;;;10.38;6.03;;;;;;;;;;5036757;28;20096;-59
2021/09/25 05:21:53;;;;;;;9.13;5.97;;;;;;;;;;5002720;28;20429;-58
2021/09/25 05:24:19;;;;;;;12.60;6.65;;;;;;;;;;5045556;28;20432;-58
2021/09/25 05:26:46;;;;;;;14.43;8.05;;;;;;;;;;4996177;28;20022;-59
2021/09/25 05:29:12;;;;;;;10.98;6.78;;;;;;;;;;4980485;28;20031;-59
2021/09/25 05:31:37;;;;;;;11.50;6.60;;;;;;;;;;5000891;28;20039;-58
2021/09/25 05:34:03;;;;;;;12.98;6.15;;;;;;;;;;4999551;28;20041;-58
2021/09/25 05:36:29;;;;;;;13.00;6.60;;;;;;;;;;4999506;28;20483;-59
2021/09/25 05:38:55;;;;;;;10.13;6.32;;;;;;;;;;4992951;28;20024;-58
2021/09/25 05:41:20;;;;;;;10.27;6.20;;;;;;;;;;4987675;28;20019;-58
2021/09/25 05:43:46;;;;;;;11.02;6.18;;;;;;;;;;4999680;28;20064;-58
2021/09/25 05:46:11;;;;;;;12.02;6.68;;;;;;;;;;4991314;28;20104;-60
2021/09/25 05:48:37;;;;;;;14.32;6.97;;;;;;;;;;5052247;28;20036;-58
2021/09/25 05:51:03;;;;;;;14.43;7.03;;;;;;;;;;5002068;28;20031;-58
2021/09/25 05:53:28;;;;;;;14.30;6.93;;;;;;;;;;5046716;28;20034;-57
2021/09/25 05:55:54;;;;;;;16.02;7.70;;;;;;;;;;4998783;28;20403;-60
2021/09/25 05:58:19;;;;;;;19.60;9.48;;;;;;;;;;4994408;28;20041;-59
2021/09/25 06:00:45;;;;;;;24.77;11.30;;;;;;;;;;5005392;28;20022;-58
2021/09/25 06:03:10;;;;;;;28.73;13.13;;;;;;;;;;4990307;28;20026;-58
2021/09/25 06:05:36;;;;;;;29.48;12.48;;;;;;;;;;4986776;28;20422;-58
2021/09/25 06:08:03;;;;;;;29.30;11.77;;;;;;;;;;4998008;28;20064;-57
2021/09/25 06:10:29;;;;;;;40.15;16.40;;;;;;;;;;4987273;28;20030;-57
2021/09/25 06:12:55;;;;;;;33.75;14.70;;;;;;;;;;5006708;28;20023;-58
2021/09/25 06:15:20;;;;;;;21.25;10.35;;;;;;;;;;4996444;28;20034;-58
2021/09/25 06:17:45;;;;;;;15.27;8.20;;;;;;;;;;4987057;28;20019;-58
2021/09/25 06:20:11;;;;;;;15.05;7.72;;;;;;;;;;5005200;28;20144;-58
2021/09/25 06:22:38;;;;;;;14.13;7.05;;;;;;;;;;4989666;28;20031;-58
2021/09/25 06:25:04;;;;;;;13.95;8.20;;;;;;;;;;4978928;28;20080;-58
2021/09/25 06:27:30;;;;;;;24.83;12.38;;;;;;;;;;5057430;28;20034;-58
2021/09/25 06:29:55;;;;;;;20.70;10.30;;;;;;;;;;4984957;28;20396;-57
2021/09/25 06:32:21;;;;;;;16.42;9.35;;;;;;;;;;4991633;28;20065;-60
2021/09/25 06:34:46;;;;;;;17.25;8.15;;;;;;;;;;4987499;28;20031;-58
2021/09/25 06:37:11;;;;;;;15.07;7.72;;;;;;;;;;4992518;28;20056;-59
2021/09/25 06:39:37;;;;;;;14.35;7.75;;;;;;;;;;4993769;28;20038;-58
2021/09/25 06:42:02;;;;;;;14.25;8.15;;;;;;;;;;4977229;28;20025;-59
2021/09/25 06:44:28;;;;;;;14.52;6.82;;;;;;;;;;4996638;28;20034;-59
2021/09/25 06:46:53;;;;;;;14.68;7.15;;;;;;;;;;4984383;28;20033;-58
2021/09/25 06:49:19;;;;;;;14.77;7.72;;;;;;;;;;5045952;28;20053;-58
2021/09/25 06:51:44;;;;;;;15.68;8.38;;;;;;;;;;5042599;28;20113;-58
2021/09/25 06:54:10;;;;;;;13.73;7.40;;;;;;;;;;4997414;28;20110;-59
2021/09/25 06:56:35;;;;;;;14.63;8.23;;;;;;;;;;5050615;28;20027;-58
2021/09/25 06:59:00;;;;;;;17.17;8.70;;;;;;;;;;4981267;28;20027;-59
2021/09/25 07:01:26;;;;;;;15.60;8.38;;;;;;;;;;4986953;28;20022;-58
2021/09/25 07:03:52;;;;;;;17.05;9.02;;;;;;;;;;5011012;28;20105;-58
2021/09/25 07:06:17;;;;;;;21.05;15.05;;;;;;;;;;4988661;28;20022;-58
2021/09/25 07:08:43;;;;;;;22.05;12.07;;;;;;;;;;5003800;28;20014;-59
2021/09/25 07:11:09;;;;;;;20.58;10.60;;;;;;;;;;4999852;28;20065;-59
2021/09/25 07:13:34;;;;;;;24.70;13.93;;;;;;;;;;4985418;28;20045;-58
2021/09/25 07:16:00;;;;;;;26.00;19.00;;;;;;;;;;5000458;28;20025;-60
2021/09/25 07:18:25;;;;;;;30.52;16.73;;;;;;;;;;4999417;28;20114;-58
2021/09/25 07:20:51;;;;;;;23.38;14.00;;;;;;;;;;4993132;28;20121;-59
2021/09/25 07:23:16;;;;;;;33.65;16.63;;;;;;;;;;4988570;28;20058;-60
2021/09/25 07:25:42;;;;;;;30.58;13.18;;;;;;;;;;4991694;28;20034;-60
2021/09/25 07:28:08;;;;;;;21.75;11.38;;;;;;;;;;5010474;28;20398;-60
2021/09/25 07:30:37;;;;;;;19.60;10.35;;;;;;;;;;5050387;28;20511;-59
2021/09/25 07:33:04;;;;;;;21.67;11.48;;;;;;;;;;4990946;28;20025;-59
2021/09/25 07:35:29;;;;;;;18.85;10.52;;;;;;;;;;4981894;28;20108;-59
2021/09/25 07:37:55;;;;;;;23.02;11.40;;;;;;;;;;4986186;28;20492;-59
2021/09/25 07:40:20;;;;;;;21.88;10.95;;;;;;;;;;4979619;28;20054;-59
2021/09/25 07:42:45;;;;;;;20.45;10.95;;;;;;;;;;4983089;28;20546;-59
2021/09/25 07:45:11;;;;;;;17.88;10.65;;;;;;;;;;4988560;28;20035;-59
2021/09/25 07:47:37;;;;;;;22.45;10.45;;;;;;;;;;4994113;28;20030;-58
2021/09/25 07:50:04;;;;;;;22.25;11.98;;;;;;;;;;4993376;28;20030;-57
2021/09/25 07:52:32;;;;;;;20.50;10.52;;;;;;;;;;5003794;28;20085;-60
2021/09/25 07:54:58;;;;;;;19.75;10.50;;;;;;;;;;4990085;28;20458;-60
2021/09/25 07:57:23;;;;;;;19.23;10.25;;;;;;;;;;4986435;28;20073;-59
2021/09/25 07:59:48;;;;;;;18.20;9.77;;;;;;;;;;5001221;28;20034;-59
2021/09/25 08:02:14;;;;;;;21.48;11.32;;;;;;;;;;4981050;28;20686;-59
2021/09/25 08:04:39;;;;;;;19.88;11.75;;;;;;;;;;4986163;28;20392;-60
2021/09/25 08:07:05;;;;;;;25.75;12.57;;;;;;;;;;5009481;28;20032;-59
2021/09/25 08:09:30;;;;;;;23.88;13.48;;;;;;;;;;4995498;28;20065;-60
2021/09/25 08:11:55;;;;;;;23.45;12.25;;;;;;;;;;4996289;28;20026;-59
2021/09/25 08:14:21;;;;;;;26.15;14.02;;;;;;;;;;5012364;28;20032;-59
2021/09/25 08:16:47;;;;;;;22.17;11.70;;;;;;;;;;4993930;28;20026;-60
2021/09/25 08:19:12;;;;;;;21.55;11.55;;;;;;;;;;4997125;28;20066;-61
2021/09/25 08:21:37;;;;;;;18.05;10.20;;;;;;;;;;4996494;28;20090;-59
2021/09/25 08:24:03;;;;;;;17.83;10.60;;;;;;;;;;4989734;28;20083;-61
2021/09/25 08:26:29;;;;;;;16.30;9.57;;;;;;;;;;5043699;28;20113;-60
2021/09/25 08:28:54;;;;;;;24.10;9.52;;;;;;;;;;4987543;28;20028;-59
2021/09/25 08:31:19;;;;;;;16.05;9.27;;;;;;;;;;4989199;28;20027;-59
2021/09/25 08:33:45;;;;;;;16.10;9.70;;;;;;;;;;4988864;28;20030;-59
2021/09/25 08:36:11;;;;;;;18.70;8.90;;;;;;;;;;4993713;28;20059;-60
2021/09/25 08:38:36;;;;;;;19.45;9.55;;;;;;;;;;4990936;28;20070;-59
2021/09/25 08:41:02;;;;;;;16.02;9.45;;;;;;;;;;4997947;28;20488;-59
2021/09/25 08:43:28;;;;;;;15.90;9.43;;;;;;;;;;5000341;28;20079;-59
2021/09/25 08:46:01;;;;;;;15.82;8.85;;;;;;;;;;4992565;28;20027;-59
2021/09/25 08:48:27;;;;;;;14.95;8.93;;;;;;;;;;4999570;28;20055;-59
2021/09/25 08:50:53;;;;;;;15.00;8.40;;;;;;;;;;4988795;28;20620;-59
2021/09/25 08:53:19;;;;;;;16.83;9.48;;;;;;;;;;5009643;28;20095;-60
2021/09/25 08:55:44;;;;;;;18.33;9.57;;;;;;;;;;4986219;28;20045;-60
2021/09/25 08:58:11;;;;;;;16.13;7.90;;;;;;;;;;4994824;28;20032;-57
2021/09/25 09:00:47;;;;;;;15.82;7.93;;;;;;;;;;5004333;28;20393;-58
2021/09/25 09:03:17;;;;;;;15.23;7.95;;;;;;;;;;4984870;28;20029;-58
2021/09/25 09:05:43;;;;;;;12.10;7.70;;;;;;;;;;5043282;28;20518;-59
2021/09/25 09:08:08;;;;;;;17.52;8.48;;;;;;;;;;4994339;28;20039;-59
2021/09/25 09:10:35;;;;;;;14.65;8.75;;;;;;;;;;4973336;28;20053;-59
2021/09/25 09:13:02;;;;;;;13.02;8.38;;;;;;;;;;4986749;28;20034;-59
2021/09/25 09:15:32;;;;;;;14.32;8.35;;;;;;;;;;5045137;28;20319;-59
2021/09/25 09:18:00;;;;;;;15.88;8.75;;;;;;;;;;4985575;28;20058;-59
2021/09/25 09:20:27;;;;;;;13.73;8.27;;;;;;;;;;5045185;28;20448;-61
2021/09/25 09:23:16;;;;;;;15.07;8.55;;;;;;;;;;4986089;28;20034;-59
2021/09/25 09:25:42;;;;;;;14.63;8.67;;;;;;;;;;4988750;28;20490;-59
2021/09/25 09:28:21;;;;;;;12.68;8.00;;;;;;;;;;4985308;28;20280;-59
2021/09/25 09:30:48;;;;;;;16.35;7.95;;;;;;;;;;5002069;28;20077;-58
2021/09/25 09:33:33;;;;;;;12.13;7.60;;;;;;;;;;4985835;28;20056;-59
2021/09/25 09:36:18;;;;;;;15.30;9.07;;;;;;;;;;5049232;28;20138;-57
2021/09/25 09:38:51;;;;;;;16.13;9.65;;;;;;;;;;4993014;28;20031;-58
2021/09/25 09:41:28;;;;;;;13.10;8.35;;;;;;;;;;4981106;28;20516;-57
2021/09/25 09:43:56;;;;;;;14.20;8.05;;;;;;;;;;4986923;28;20039;-58
2021/09/25 09:46:33;;;;;;;18.73;8.53;;;;;;;;;;4994686;28;20132;-58
2021/09/25 09:48:59;;;;;;;13.15;8.48;;;;;;;;;;5048456;28;20018;-59
2021/09/25 09:51:43;;;;;;;12.88;8.40;;;;;;;;;;5006471;28;20035;-59
2021/09/25 09:54:11;;;;;;;12.95;8.40;;;;;;;;;;5005226;28;20113;-59
2021/09/25 09:56:40;;;;;;;13.15;8.40;;;;;;;;;;4989816;28;20511;-59
2021/09/25 09:59:07;;;;;;;11.55;8.40;;;;;;;;;;4986434;28;20049;-60
2021/09/25 10:01:33;;;;;;;12.25;8.18;;;;;;;;;;4989773;28;20034;-57
2021/09/25 10:03:59;;;;;;;14.95;8.70;;;;;;;;;;4984503;28;20526;-59
2021/09/25 10:06:25;;;;;;;11.68;8.15;;;;;;;;;;5003473;28;20105;-58
2021/09/25 10:08:51;;;;;;;14.90;8.55;;;;;;;;;;4996077;28;20110;-58
2021/09/25 10:11:17;;;;;;;15.02;8.68;;;;;;;;;;5004909;28;20354;-59
2021/09/25 10:13:43;;;;;;;12.23;8.18;;;;;;;;;;5046937;28;20069;-59
2021/09/25 10:16:10;;;;;;;12.75;7.70;;;;;;;;;;4998182;28;20027;-58
2021/09/25 10:18:36;;;;;;;13.05;8.07;;;;;;;;;;4992204;28;20037;-58
2021/09/25 10:21:08;;;;;;;11.73;7.75;;;;;;;;;;5044670;28;20126;-58
2021/09/25 10:23:37;;;;;;;12.63;7.70;;;;;;;;;;4990249;28;20068;-58
2021/09/25 10:26:03;;;;;;;13.80;8.77;;;;;;;;;;5002450;28;20030;-57
2021/09/25 10:28:30;;;;;;;10.57;8.20;;;;;;;;;;5000033;28;20036;-58
2021/09/25 10:30:57;;;;;;;13.75;8.75;;;;;;;;;;4991111;28;20397;-58
2021/09/25 10:33:23;;;;;;;13.95;7.90;;;;;;;;;;5003044;28;20030;-58
2021/09/25 10:35:53;;;;;;;10.48;8.13;;;;;;;;;;5002269;28;20107;-60
2021/09/25 10:38:38;;;;;;;15.32;8.60;;;;;;;;;;4986406;28;20203;-58
2021/09/25 10:41:17;;;;;;;10.20;7.65;;;;;;;;;;4980473;28;20035;-60
2021/09/25 10:43:48;;;;;;;14.32;8.45;;;;;;;;;;5045846;28;20022;-60
2021/09/25 10:46:15;;;;;;;10.88;7.78;;;;;;;;;;4988387;28;20031;-60
2021/09/25 10:48:54;;;;;;;11.80;8.07;;;;;;;;;;5042382;28;20118;-59
2021/09/25 10:51:21;;;;;;;11.68;8.40;;;;;;;;;;4986247;28;20081;-60
2021/09/25 10:53:49;;;;;;;12.98;7.85;;;;;;;;;;4983791;28;20037;-61
2021/09/25 10:56:16;;;;;;;12.43;8.35;;;;;;;;;;4994996;28;20464;-60
2021/09/25 10:58:42;;;;;;;12.52;8.45;;;;;;;;;;4990356;28;20115;-59
2021/09/25 11:01:18;;;;;;;17.95;8.95;;;;;;;;;;5044338;28;20031;-59
2021/09/25 11:03:58;;;;;;;12.60;8.43;;;;;;;;;;4995068;28;20033;-59
2021/09/25 11:06:44;;;;;;;11.30;8.25;;;;;;;;;;4991125;28;20030;-59
2021/09/25 11:09:37;;;;;;;11.50;8.07;;;;;;;;;;4991972;28;20041;-62
2021/09/25 11:12:10;;;;;;;9.68;7.97;;;;;;;;;;4998654;28;20412;-59
2021/09/25 11:15:04;;;;;;;11.30;8.43;;;;;;;;;;4995745;28;20068;-60
2021/09/25 11:17:30;;;;;;;17.45;8.52;;;;;;;;;;4999320;28;20096;-61
2021/09/25 11:20:08;;;;;;;12.20;8.68;;;;;;;;;;4988765;28;20121;-59
2021/09/25 11:22:39;;;;;;;17.70;8.98;;;;;;;;;;4988126;28;20125;-59
2021/09/25 11:25:10;;;;;;;12.07;8.05;;;;;;;;;;5007343;28;20062;-59
2021/09/25 11:27:45;;;;;;;16.58;9.60;;;;;;;;;;5011170;28;20019;-59
2021/09/25 11:30:20;;;;;;;16.45;9.48;;;;;;;;;;4993539;28;20058;-59
2021/09/25 11:32:58;;;;;;;12.75;9.07;;;;;;;;;;4989633;28;20041;-60
2021/09/25 11:35:25;;;;;;;18.33;9.10;;;;;;;;;;4999519;28;20060;-60
2021/09/25 11:38:08;;;;;;;15.43;9.38;;;;;;;;;;4985835;28;20043;-59
2021/09/25 11:40:39;;;;;;;14.50;8.85;;;;;;;;;;4993377;28;20049;-59
2021/09/25 11:43:08;;;;;;;13.57;8.25;;;;;;;;;;4997942;28;20026;-59
2021/09/25 11:45:47;;;;;;;11.73;7.78;;;;;;;;;;5047395;28;20038;-60
2021/09/25 11:48:15;;;;;;;13.38;8.10;;;;;;;;;;5011624;28;20106;-59
2021/09/25 11:50:46;;;;;;;14.13;9.43;;;;;;;;;;5007170;28;20020;-60
2021/09/25 11:53:14;;;;;;;12.88;8.65;;;;;;;;;;4992260;28;20027;-59
2021/09/25 11:55:41;;;;;;;16.20;8.73;;;;;;;;;;5045546;28;20060;-59
2021/09/25 11:58:09;;;;;;;11.95;8.05;;;;;;;;;;5054770;28;20273;-60
2021/09/25 12:00:48;;;;;;;9.25;7.75;;;;;;;;;;5046991;28;20034;-59
2021/09/25 12:03:15;;;;;;;13.10;8.27;;;;;;;;;;4991674;28;20030;-60
2021/09/25 12:05:46;;;;;;;11.88;7.88;;;;;;;;;;5046059;28;20030;-59
2021/09/25 12:08:21;;;;;;;11.32;8.13;;;;;;;;;;4987802;28;20037;-59
2021/09/25 12:10:59;;;;;;;10.27;7.22;;;;;;;;;;4993629;28;20199;-59
2021/09/25 12:13:25;;;;;;;10.35;7.82;;;;;;;;;;4985255;28;20164;-59
2021/09/25 12:15:53;;;;;;;10.65;7.22;;;;;;;;;;5021574;28;20487;-60
2021/09/25 12:18:21;;;;;;;11.13;7.68;;;;;;;;;;4984873;28;20481;-59
2021/09/25 12:21:02;;;;;;;11.50;7.60;;;;;;;;;;5013404;28;20038;-59
2021/09/25 12:23:35;;;;;;;9.80;7.32;;;;;;;;;;4986715;28;20043;-60
2021/09/25 12:26:02;;;;;;;9.50;7.35;;;;;;;;;;5036689;28;20370;-60
2021/09/25 12:28:32;;;;;;;10.82;7.90;;;;;;;;;;4978899;28;20042;-59
2021/09/25 12:31:01;;;;;;;14.30;7.25;;;;;;;;;;5000737;28;20065;-59
2021/09/25 12:33:27;;;;;;;11.18;7.07;;;;;;;;;;4979519;28;20030;-59
2021/09/25 12:36:01;;;;;;;11.90;7.15;;;;;;;;;;4992825;28;20092;-59
2021/09/25 12:38:32;;;;;;;9.80;7.05;;;;;;;;;;5052671;28;20121;-59
2021/09/25 12:41:03;;;;;;;12.70;7.68;;;;;;;;;;4984705;28;20113;-59
2021/09/25 12:43:39;;;;;;;9.77;7.55;;;;;;;;;;5002918;28;20023;-60
2021/09/25 12:46:07;;;;;;;11.43;6.95;;;;;;;;;;5010902;28;20047;-60
2021/09/25 12:48:32;;;;;;;10.00;7.00;;;;;;;;;;5009432;28;20027;-60
2021/09/25 12:50:57;;;;;;;10.90;7.10;;;;;;;;;;4995725;28;20439;-59
2021/09/25 12:53:23;;;;;;;17.88;7.40;;;;;;;;;;5044022;28;20045;-60
2021/09/25 12:55:49;;;;;;;8.90;6.55;;;;;;;;;;5044875;28;20392;-60
2021/09/25 12:58:17;;;;;;;9.75;6.80;;;;;;;;;;4999315;28;20022;-62
2021/09/25 13:00:45;;;;;;;13.50;7.13;;;;;;;;;;4998158;28;20035;-62
2021/09/25 13:03:12;;;;;;;9.90;7.57;;;;;;;;;;4989657;28;20103;-62
2021/09/25 13:05:38;;;;;;;10.30;7.05;;;;;;;;;;4995796;28;20026;-60
2021/09/25 13:08:15;;;;;;;16.77;7.13;;;;;;;;;;5009300;28;20484;-61
2021/09/25 13:10:48;;;;;;;46.55;8.23;;;;;;;;;;4989975;28;20034;-63
2021/09/25 13:13:17;;;;;;;11.57;6.78;;;;;;;;;;5011524;28;20028;-63
2021/09/25 13:15:44;;;;;;;9.93;7.15;;;;;;;;;;5047291;28;20512;-60
2021/09/25 13:18:10;;;;;;;29.50;7.72;;;;;;;;;;4993581;28;20026;-60
2021/09/25 13:20:36;;;;;;;11.27;6.78;;;;;;;;;;4998169;28;20087;-61
2021/09/25 13:23:08;;;;;;;9.63;6.90;;;;;;;;;;5002383;28;20034;-59
2021/09/25 13:25:34;;;;;;;8.80;6.38;;;;;;;;;;5008173;28;20489;-59
2021/09/25 13:28:04;;;;;;;9.10;6.43;;;;;;;;;;5000478;28;20048;-60
2021/09/25 13:30:30;;;;;;;8.45;6.28;;;;;;;;;;4995432;28;20025;-60
2021/09/25 13:32:56;;;;;;;8.70;5.95;;;;;;;;;;4983807;28;20026;-59
2021/09/25 13:35:21;;;;;;;7.80;5.70;;;;;;;;;;4990952;28;20050;-59
2021/09/25 13:37:47;;;;;;;8.18;5.22;;;;;;;;;;4997819;28;20385;-59
2021/09/25 13:40:12;;;;;;;9.25;5.90;;;;;;;;;;4991421;28;20035;-59
2021/09/25 13:42:38;;;;;;;9.00;6.15;;;;;;;;;;4999115;28;20528;-60
2021/09/25 13:45:05;;;;;;;6.70;5.43;;;;;;;;;;4991152;28;20022;-60
2021/09/25 13:47:31;;;;;;;7.78;5.40;;;;;;;;;;4991573;28;20075;-58
2021/09/25 13:49:57;;;;;;;6.80;5.68;;;;;;;;;;4999079;28;20106;-58
2021/09/25 13:52:22;;;;;;;7.65;5.80;;;;;;;;;;4985305;28;20529;-61
2021/09/25 13:54:47;;;;;;;7.80;5.63;;;;;;;;;;4983813;28;20864;-60
2021/09/25 13:57:13;;;;;;;5.20;4.53;;;;;;;;;;4987177;28;20467;-59
2021/09/25 13:59:40;;;;;;;8.88;4.68;;;;;;;;;;4998649;28;20022;-59
2021/09/25 14:02:08;;;;;;;7.35;4.20;;;;;;;;;;4986864;28;20029;-59
2021/09/25 14:04:34;;;;;;;5.93;4.18;;;;;;;;;;5047791;28;20030;-59
2021/09/25 14:07:00;;;;;;;5.40;3.97;;;;;;;;;;4996870;28;20080;-58
2021/09/25 14:09:25;;;;;;;5.80;4.10;;;;;;;;;;4977273;28;20026;-58
2021/09/25 14:11:54;;;;;;;5.45;3.88;;;;;;;;;;5003695;28;20034;-58
2021/09/25 14:14:20;;;;;;;4.03;3.40;;;;;;;;;;4979856;28;20342;-58
2021/09/25 14:16:45;;;;;;;4.50;3.47;;;;;;;;;;4977888;28;20049;-59
2021/09/25 14:19:10;;;;;;;11.80;5.68;;;;;;;;;;5002795;28;20022;-59
2021/09/25 14:21:36;;;;;;;10.98;6.25;;;;;;;;;;4994416;28;20035;-60
2021/09/25 14:24:08;;;;;;;12.20;6.18;;;;;;;;;;4982121;28;21455;-60
2021/09/25 14:26:36;;;;;;;20.83;12.50;;;;;;;;;;5045660;28;20504;-58
2021/09/25 14:29:08;;;;;;;12.60;6.30;;;;;;;;;;4985735;28;20057;-59
2021/09/25 14:31:36;;;;;;;9.05;5.72;;;;;;;;;;4996655;28;20034;-59